Historyczne dane pomiarowe

Dodano dane terminowe – wersja testowa.

Dane z okresu 1951-2019

Wersja bazy: 1.34 [2019-03-16, lista zmian], aktualizacja planowana na 2019-04-15

Dane meteo z obszaru Polski uzyskane na podstawie danych udostępnionych przez Instytut Meteorologii i Gospodarki Wodnej – Państwowy Instytut Badawczy.

 

Wybierz Datę:    

       

TemperaturaWilgotnośćWiatrCiśnienieOpadyŚniegCzas trwania zjawisk
 Stacja t tx tn tng RH VA  wxwx mslp ppp RRR   cm mm wxwxwxwxwxwxwx
1983-08-14 14.3 19.4 9.8- 70.3- 2.3 1.7---- 0.0------------
1983-08-13 16.1 23.1 13.6- 81.3- 7.3 2.3---- 13.3------------
1983-08-12 22.4 27.4 17.1- 58.3- 1.0 1.3---- 6.0------------
1983-08-11 21.6 27.0 15.7- 62.3- 0.7 0.3---- 0.0------------
1983-08-10 21.0 27.5 14.6- 69.0- 2.3 0.7---- 0.0------------
1983-08-09 21.8 27.4 16.5- 71.5- 1.0 1.0---- 0.0------------
1983-08-08 20.0 27.4 15.1- 84.3- 7.0 1.3---- 1.7------------
1983-08-07 18.6 24.1 11.5- 86.8- 6.0 0.7---- 17.5------------
1983-08-06 16.7 22.9 10.0- 76.5- 3.3 0.7---- 0.4------------
1983-08-05 14.8 19.4 11.0- 82.8- 7.7 1.0---- 0.0------------
1983-08-04 14.9 21.4 13.2- 91.3- 8.0 1.0---- 8.5------------
1983-08-03 20.4 27.0 15.4- 86.8- 7.3 1.0---- 2.8------------
1983-08-02 22.4 29.1 15.1- 61.0- 3.7 1.0---- 15.2------------
1983-08-01 21.2 28.7 12.5- 58.0- 0.0 1.7---- 0.0------------
1983-07-31 19.0 25.4 12.7- 61.0- 1.3 1.3---- 0.0------------
1983-07-30 17.6 22.1 15.6- 79.5- 7.3 2.0---- 0.2------------
1983-07-29 20.2 25.0 15.5- 64.5- 3.3 2.0---- 0.8------------
1983-07-28 22.5 25.7 17.6- 72.5- 5.7 2.0---- 0.0------------
1983-07-27 23.2 31.2 16.6- 61.8- 2.0 1.0---- 3.4------------
1983-07-26 20.9 28.0 13.2- 72.8- 1.7 1.3---- 0.0------------
1983-07-25 14.9 18.0 11.0- 87.0- 8.0 1.7---- 3.8------------
1983-07-24 15.1 19.0 12.8- 88.3- 7.0 1.0---- 10.7------------
1983-07-23 15.9 19.8 12.0- 76.5- 7.3 2.0---- 0.6------------
1983-07-22 15.5 19.0 10.7- 69.3- 6.7 2.3---- 1.5------------
1983-07-21 14.4 18.2 10.0- 71.3- 4.3 2.7---- 0.0------------
1983-07-20 15.4 24.5 10.6- 78.5- 8.0 1.7---- 7.1------------
1983-07-19 23.4 27.0 19.4- 65.3- 6.3 2.3---- 0.0------------
1983-07-18 21.8 30.0 13.4- 56.5- 0.7 1.0---- 0.0------------
1983-07-17 20.1 24.7 16.2- 69.3- 3.3 1.0---- 0.0------------
1983-07-16 21.8 28.5 17.1- 70.5- 3.3 1.3---- 1.0------------
1983-07-15 20.0 26.0 13.5- 62.3- 1.3 1.3---- 0.0------------
1983-07-14 20.6 25.8 17.3- 81.8- 6.0 1.3---- 0.0------------
1983-07-13 22.0 26.6 18.4- 69.0- 3.3 1.3---- 4.6------------
1983-07-12 21.4 26.2 17.1- 76.5- 4.3 1.3---- 0.0------------
1983-07-11 22.6 27.4 18.9- 76.5- 6.3 1.7---- 4.5------------
1983-07-10 23.4 30.1 16.9- 57.0- 1.0 1.3---- 0.0------------
1983-07-09 22.2 28.4 16.1- 60.5- 1.0 1.0---- 0.0------------
1983-07-08 20.7 26.7 13.4- 61.5- 0.7 1.0---- 0.0------------
1983-07-07 21.4 27.3 14.5- 59.3- 0.0 1.0---- 0.0------------
1983-07-06 21.5 27.6 15.1- 63.5- 0.0 0.7---- 0.0------------
1983-07-05 19.8 25.0 14.3- 62.0- 0.0 1.0---- 0.0------------
1983-07-04 21.8 27.2 16.8- 54.5- 0.7 1.0---- 0.0------------
1983-07-03 18.6 24.7 13.0- 70.3- 2.7 1.3---- 0.0------------
1983-07-02 18.7 23.6 15.1- 80.5- 5.0 1.3---- 0.0------------
1983-07-01 20.5 27.4 12.3- 69.5- 1.7 1.0---- 0.0------------
1983-06-30 18.0 24.3 9.2- 62.5- 1.0 0.7---- 0.0------------
1983-06-29 15.3 20.3 10.0- 59.8- 0.7 1.7---- 0.0------------
1983-06-28 17.4 21.5 12.0- 85.0- 6.3 1.7---- 3.0------------
1983-06-27 19.7 26.5 14.1- 76.8- 6.3 1.0---- 6.5------------
1983-06-26 20.6 25.5 14.8- 55.5- 0.7 1.7---- 0.0------------
1983-06-25 21.6 29.0 15.9- 58.8- 3.3 1.7---- 0.0------------
1983-06-24 19.4 26.8 12.3- 48.5- 0.0 1.3---- 0.0------------
1983-06-23 15.2 22.3 6.5- 59.5- 0.0 1.0---- 0.0------------
1983-06-22 13.9 19.5 7.6- 58.5- 0.7 1.3---- 0.0------------
1983-06-21 18.8 24.5 13.9- 65.5- 1.0 1.7---- 0.0------------
1983-06-20 19.8 25.5 15.7- 70.0- 5.0 1.7---- 0.0------------
1983-06-19 17.0 19.8 14.1- 86.8- 8.0 1.7---- 0.7------------
1983-06-18 14.4 17.0 11.5- 81.3- 8.0 1.3---- 0.0------------
1983-06-17 14.6 18.5 9.2- 72.8- 5.3 1.7---- 0.0------------
1983-06-16 13.4 16.5 10.0- 83.0- 7.7 2.7---- 0.2------------
256.0 ms

 

Źródłem pochodzenia danych jest Instytut Meteorologii i Gospodarki Wodnej – Państwowy Instytut Badawczy. Dane Instytutu Meteorologii i Gospodarki Wodnej – Państwowego Instytutu Badawczego zostały przetworzone.

Dane źródłowe można odnaleźć na stronie https://dane.imgw.pl